Time;durP1;ratioP1;P1;durP2;ratioP2;P2;SDS_P1;SDS_P2;PMS_P1;PMS_P2;Temp;Humidity;BMP_temperature;BMP_pressure;BME280_temperature;BME280_humidity;BME280_pressure;Samples;Min_cycle;Max_cycle;Signal;HPM_P1;HPM_P2
2022/06/11 00:01:24;;;;;;;18.63;10.23;;;;;;;15.58;100.00;164638.75;5069419;28;20040;-62
2022/06/11 00:03:52;;;;;;;15.75;10.73;;;;;;;15.56;100.00;164634.69;5070678;28;20036;-62
2022/06/11 00:06:19;;;;;;;17.83;11.73;;;;;;;15.56;100.00;164634.69;5069730;28;20036;-62
2022/06/11 00:08:46;;;;;;;15.73;10.13;;;;;;;15.52;100.00;164625.22;5070430;28;20492;-62
2022/06/11 00:11:13;;;;;;;15.18;9.20;;;;;;;15.49;100.00;164617.06;5069454;28;20060;-62
2022/06/11 00:13:39;;;;;;;10.02;8.77;;;;;;;15.47;100.00;164611.66;5071299;28;20082;-61
2022/06/11 00:16:06;;;;;;;13.75;9.85;;;;;;;15.41;100.00;164595.41;5069025;28;20044;-61
2022/06/11 00:18:32;;;;;;;11.88;10.32;;;;;;;15.40;100.00;164592.69;5070630;28;20024;-61
2022/06/11 00:20:58;;;;;;;16.27;9.55;;;;;;;15.35;100.00;164580.50;5068692;28;20199;-61
2022/06/11 00:23:24;;;;;;;14.50;10.60;;;;;;;15.30;100.00;164566.97;5070692;28;20028;-61
2022/06/11 00:25:49;;;;;;;19.98;12.35;;;;;;;15.25;100.00;164553.47;5068873;28;20044;-61
2022/06/11 00:28:15;;;;;;;19.13;11.35;;;;;;;15.21;100.00;164544.00;5070483;28;20016;-61
2022/06/11 00:30:40;;;;;;;13.43;10.52;;;;;;;15.18;100.00;164534.50;5069281;28;20041;-61
2022/06/11 00:33:09;;;;;;;18.48;11.70;;;;;;;15.14;100.00;164525.03;5069864;28;20523;-61
2022/06/11 00:35:36;;;;;;;13.25;9.70;;;;;;;15.14;100.00;164525.03;5069340;28;20041;-61
2022/06/11 00:38:03;;;;;;;13.53;11.00;;;;;;;15.10;100.00;164514.19;5070533;28;20479;-61
2022/06/11 00:40:30;;;;;;;13.18;11.75;;;;;;;15.09;100.00;164511.47;5068604;28;20036;-61
2022/06/11 00:42:56;;;;;;;12.03;9.27;;;;;;;15.05;100.00;164500.66;5070339;28;20341;-61
2022/06/11 00:45:55;;;;;;;14.65;9.88;;;;;;;15.02;100.00;164492.53;5069353;28;20044;-61
2022/06/11 00:48:35;;;;;;;20.85;12.40;;;;;;;14.99;100.00;164485.75;5070417;28;20043;-61
2022/06/11 00:51:10;;;;;;;19.42;13.20;;;;;;;15.00;100.00;164488.47;5068855;28;20064;-61
2022/06/11 00:53:47;;;;;;;20.77;12.57;;;;;;;15.04;100.00;164497.94;5070172;28;20067;-61
2022/06/11 00:56:23;;;;;;;15.70;12.20;;;;;;;15.01;100.00;164489.81;5069197;28;20082;-61
2022/06/11 00:58:52;;;;;;;23.25;14.55;;;;;;;15.04;100.00;164499.28;5069886;28;20545;-61
2022/06/11 01:01:21;;;;;;;22.02;15.05;;;;;;;15.06;100.00;164503.38;5068781;28;20056;-61
2022/06/11 01:03:47;;;;;;;20.55;14.95;;;;;;;15.10;100.00;164514.19;5069684;28;20062;-61
2022/06/11 01:06:29;;;;;;;25.38;17.88;;;;;;;15.16;100.00;164530.41;5068932;28;20098;-61
2022/06/11 01:09:39;;;;;;;21.48;17.45;;;;;;;15.29;100.00;164562.94;5069859;28;20085;-61
2022/06/11 01:12:32;;;;;;;26.23;20.17;;;;;;;15.33;100.00;164573.75;5046096;28;20053;-61
2022/06/11 01:15:14;;;;;;;23.77;20.38;;;;;;;15.31;100.00;164568.31;5045969;28;20033;-61
2022/06/11 01:18:09;;;;;;;24.80;21.60;;;;;;;15.25;100.00;164553.47;5044740;28;20439;-61
2022/06/11 01:20:45;;;;;;;24.67;20.42;;;;;;;15.33;100.00;164573.75;5048817;28;20049;-61
2022/06/11 01:23:37;;;;;;;30.55;20.75;;;;;;;15.35;100.00;164580.50;5049699;28;20155;-61
2022/06/11 01:26:40;;;;;;;28.15;22.23;;;;;;;15.35;100.00;164579.16;5067275;28;20044;-61
2022/06/11 01:29:11;;;;;;;37.17;22.52;;;;;;;15.37;100.00;164584.59;5049826;28;20112;-61
2022/06/11 01:31:49;;;;;;;33.95;22.35;;;;;;;15.48;100.00;164614.34;5048541;28;20056;-61
2022/06/11 01:34:34;;;;;;;27.95;21.73;;;;;;;15.55;100.00;164633.31;5050431;28;20028;-61
2022/06/11 01:37:11;;;;;;;23.75;21.25;;;;;;;15.57;100.00;164636.03;5048379;28;20045;-62
2022/06/11 01:40:05;;;;;;;24.25;21.67;;;;;;;15.60;100.00;164644.16;5059722;28;20028;-62
2022/06/11 01:42:50;;;;;;;23.17;19.08;;;;;;;15.61;100.00;164648.22;5067187;28;20097;-62
2022/06/11 01:45:33;;;;;;;23.35;20.65;;;;;;;15.64;100.00;164654.97;5072225;28;20050;-61
2022/06/11 01:47:59;;;;;;;27.63;18.80;;;;;;;15.70;100.00;164671.22;5073529;28;20446;-62
2022/06/11 01:50:27;;;;;;;23.67;19.08;;;;;;;15.73;100.00;164679.38;5072006;28;20037;-62
2022/06/11 01:53:30;;;;;;;24.38;21.88;;;;;;;15.81;100.00;164701.03;5073097;28;20158;-62
2022/06/11 01:56:13;;;;;;;32.80;23.80;;;;;;;15.91;100.00;164725.41;5072117;28;20411;-62
2022/06/11 01:59:04;;;;;;;36.80;22.65;;;;;;;15.97;100.00;164741.72;5073299;28;20503;-62
2022/06/11 02:01:51;;;;;;;26.17;19.92;;;;;;;15.97;100.00;164741.72;5071767;28;20127;-62
2022/06/11 02:04:34;;;;;;;33.58;21.90;;;;;;;15.97;100.00;164743.03;5066155;28;20078;-62
2022/06/11 02:07:21;;;;;;;23.90;21.05;;;;;;;15.86;100.00;164714.59;5064141;28;20152;-62
2022/06/11 02:09:58;;;;;;;27.42;20.20;;;;;;;15.89;100.00;164721.38;5062135;28;20021;-62
2022/06/11 02:12:38;;;;;;;28.15;19.67;;;;;;;15.86;100.00;164713.28;5062788;28;20091;-62
2022/06/11 02:15:16;;;;;;;43.35;22.13;;;;;;;15.86;100.00;164714.59;5059877;28;20032;-61
2022/06/11 02:17:45;;;;;;;23.27;19.38;;;;;;;15.78;100.00;164692.88;5063993;28;20457;-61
2022/06/11 02:20:25;;;;;;;26.52;19.30;;;;;;;15.65;100.00;164657.69;5053535;28;20044;-61
2022/06/11 02:23:00;;;;;;;27.08;19.25;;;;;;;15.58;100.00;164638.75;5063305;28;20039;-62
2022/06/11 02:25:31;;;;;;;20.13;17.10;;;;;;;15.41;100.00;164595.41;5071805;28;20411;-62
2022/06/11 02:28:00;;;;;;;24.67;19.33;;;;;;;15.39;100.00;164589.97;5072714;28;20040;-62
2022/06/11 02:30:29;;;;;;;28.27;22.35;;;;;;;15.34;100.00;164576.47;5061606;28;20119;-62
2022/06/11 02:32:55;;;;;;;27.75;20.95;;;;;;;15.28;100.00;164561.56;5062003;28;20013;-61
2022/06/11 02:35:38;;;;;;;28.63;19.88;;;;;;;15.20;100.00;164541.28;5068262;28;20412;-61
2022/06/11 02:38:08;;;;;;;22.33;17.10;;;;;;;15.16;100.00;164529.09;5072306;28;20029;-61
2022/06/11 02:40:37;;;;;;;21.48;16.95;;;;;;;15.10;100.00;164514.19;5071771;28;20041;-61
2022/06/11 02:43:02;;;;;;;28.70;18.77;;;;;;;15.01;100.00;164489.81;5072381;28;20430;-62
2022/06/11 02:45:28;;;;;;;18.20;16.15;;;;;;;14.98;100.00;164481.72;5070790;28;20044;-62
2022/06/11 02:47:53;;;;;;;29.02;20.75;;;;;;;14.93;100.00;164468.19;5072262;28;20025;-61
2022/06/11 02:50:27;;;;;;;24.08;17.80;;;;;;;14.84;100.00;164445.16;5071075;28;20037;-61
2022/06/11 02:52:54;;;;;;;22.25;19.08;;;;;;;14.80;100.00;164435.69;5072137;28;20422;-61
2022/06/11 02:55:19;;;;;;;26.83;19.05;;;;;;;14.73;100.00;164416.75;5069915;28;20120;-61
2022/06/11 02:57:45;;;;;;;22.40;17.52;;;;;;;14.65;100.00;164396.41;5072147;28;20032;-61
2022/06/11 03:00:16;;;;;;;20.00;17.92;;;;;;;14.57;100.00;164376.09;5070543;28;20123;-61
2022/06/11 03:02:41;;;;;;;19.05;17.08;;;;;;;14.54;100.00;164368.00;5072209;28;20028;-61
2022/06/11 03:05:07;;;;;;;23.83;16.77;;;;;;;14.53;100.00;164365.28;5069958;28;20040;-61
2022/06/11 03:07:32;;;;;;;18.77;15.90;;;;;;;14.47;100.00;164349.06;5072064;28;20029;-62
2022/06/11 03:09:57;;;;;;;22.05;17.88;;;;;;;14.41;100.00;164332.78;5070492;28;20404;-61
2022/06/11 03:12:23;;;;;;;29.60;16.63;;;;;;;14.33;100.00;164312.53;5072319;28;20031;-60
2022/06/11 03:14:48;;;;;;;17.52;15.73;;;;;;;14.26;100.00;164294.91;5072055;28;20025;-61
2022/06/11 03:17:17;;;;;;;19.92;17.77;;;;;;;14.19;100.00;164274.66;5070543;28;20036;-61
2022/06/11 03:19:42;;;;;;;17.67;14.82;;;;;;;14.14;100.00;164262.47;5072471;28;20036;-61
2022/06/11 03:22:08;;;;;;;20.35;15.13;;;;;;;14.08;100.00;164246.25;5070149;28;20518;-61
2022/06/11 03:24:34;;;;;;;18.25;14.75;;;;;;;14.04;100.00;164236.78;5071572;28;20558;-61
2022/06/11 03:26:59;;;;;;;20.13;15.35;;;;;;;14.03;100.00;164232.72;5070318;28;20045;-61
2022/06/11 03:29:27;;;;;;;23.60;17.80;;;;;;;14.04;100.00;164236.78;5071590;28;20020;-60
2022/06/11 03:31:53;;;;;;;18.05;14.98;;;;;;;14.03;100.00;164232.72;5069981;28;20503;-60
2022/06/11 03:34:19;;;;;;;21.48;15.10;;;;;;;13.99;100.00;164221.88;5072043;28;20025;-61
2022/06/11 03:36:45;;;;;;;15.75;14.07;;;;;;;14.09;100.00;164248.94;5069944;28;20036;-60
2022/06/11 03:39:12;;;;;;;17.60;15.85;;;;;;;14.11;100.00;164255.72;5071747;28;20020;-60
2022/06/11 03:41:38;;;;;;;22.02;16.27;;;;;;;14.17;100.00;164270.59;5070325;28;20067;-61
2022/06/11 03:44:04;;;;;;;19.02;16.00;;;;;;;14.20;100.00;164278.69;5070941;28;20157;-61
2022/06/11 03:46:30;;;;;;;18.75;15.45;;;;;;;14.22;100.00;164284.13;5069716;28;20143;-61
2022/06/11 03:48:56;;;;;;;16.13;14.55;;;;;;;14.22;100.00;164284.13;5071651;28;20125;-61
2022/06/11 03:51:22;;;;;;;17.77;13.15;;;;;;;14.25;100.00;164290.88;5069988;28;20051;-61
2022/06/11 03:53:48;;;;;;;19.48;14.80;;;;;;;14.25;100.00;164292.25;5071147;28;20566;-61
2022/06/11 03:56:15;;;;;;;16.08;13.63;;;;;;;14.25;100.00;164292.25;5069992;28;20044;-61
2022/06/11 03:58:42;;;;;;;23.65;16.20;;;;;;;14.27;100.00;164297.63;5070676;28;20028;-61
2022/06/11 04:01:16;;;;;;;20.48;15.82;;;;;;;14.29;100.00;164301.72;5069796;28;20036;-60
2022/06/11 04:03:58;;;;;;;21.38;13.40;;;;;;;14.32;100.00;164308.47;5071087;28;20035;-61
2022/06/11 04:06:29;;;;;;;21.50;14.63;;;;;;;14.33;100.00;164312.53;5069093;28;20530;-60
2022/06/11 04:08:55;;;;;;;16.15;14.50;;;;;;;14.31;100.00;164305.75;5070991;28;20027;-60
2022/06/11 04:11:21;;;;;;;16.95;13.90;;;;;;;14.33;100.00;164311.19;5069797;28;20040;-59
2022/06/11 04:13:48;;;;;;;17.40;15.60;;;;;;;14.33;100.00;164311.19;5070050;28;20556;-59
2022/06/11 04:16:35;;;;;;;17.52;14.20;;;;;;;14.37;100.00;164322.00;5069363;28;20045;-59
2022/06/11 04:19:03;;;;;;;21.70;13.27;;;;;;;14.42;100.00;164335.50;5071007;28;20044;-59
2022/06/11 04:21:31;;;;;;;17.23;13.20;;;;;;;14.46;100.00;164346.34;5067614;28;20052;-59
2022/06/11 04:23:59;;;;;;;15.23;13.60;;;;;;;14.56;100.00;164372.06;5068120;28;20447;-59
2022/06/11 04:26:30;;;;;;;24.15;13.00;;;;;;;14.65;100.00;164395.03;5063516;28;20058;-59
2022/06/11 04:28:56;;;;;;;16.77;15.00;;;;;;;14.74;100.00;164419.47;5057807;28;20131;-59
2022/06/11 04:31:23;;;;;;;16.50;13.52;;;;;;;14.84;100.00;164445.16;5069078;28;20048;-59
2022/06/11 04:33:48;;;;;;;14.75;12.73;;;;;;;14.94;100.00;164470.88;5070574;28;20426;-59
2022/06/11 04:36:16;;;;;;;15.77;10.60;;;;;;;15.01;100.00;164491.19;5057778;28;20098;-59
2022/06/11 04:38:42;;;;;;;14.10;10.52;;;;;;;15.06;100.00;164503.38;5070978;28;20322;-59
2022/06/11 04:41:08;;;;;;;11.95;9.25;;;;;;;15.17;100.00;164531.81;5069083;28;20134;-59
2022/06/11 04:43:34;;;;;;;11.65;9.77;;;;;;;15.27;100.00;164557.50;5068757;28;20039;-59
2022/06/11 04:46:00;;;;;;;9.15;8.02;;;;;;;15.38;100.00;164588.66;5055757;28;20050;-59
2022/06/11 04:48:25;;;;;;;16.08;8.77;;;;;;;15.49;100.00;164617.06;5069582;28;20032;-59
2022/06/11 04:50:51;;;;;;;9.48;8.35;;;;;;;15.60;100.00;164644.16;5067822;28;20279;-59
2022/06/11 04:53:16;;;;;;;9.68;8.55;;;;;;;15.61;100.00;164646.84;5068674;28;20024;-59
2022/06/11 04:55:42;;;;;;;14.75;10.88;;;;;;;15.66;100.00;164660.41;5068626;28;20441;-59
2022/06/11 04:58:07;;;;;;;8.93;8.13;;;;;;;15.73;100.00;164679.38;5068200;28;20021;-59
2022/06/11 05:00:33;;;;;;;12.38;7.07;;;;;;;15.79;100.00;164695.59;5052427;28;20093;-59
2022/06/11 05:02:59;;;;;;;13.65;9.43;;;;;;;15.78;100.00;164692.88;5069101;28;20491;-59
2022/06/11 05:05:26;;;;;;;9.65;8.30;;;;;;;15.81;100.00;164701.03;5067768;28;20080;-58
2022/06/11 05:07:52;;;;;;;19.60;8.82;;;;;;;15.89;100.00;164720.03;5068654;28;20059;-59
2022/06/11 05:10:20;;;;;;;10.55;8.48;;;;;;;15.98;100.00;164744.38;5067615;28;20113;-59
2022/06/11 05:12:45;;;;;;;16.98;7.88;;;;;;;16.02;100.00;164755.22;5068431;28;20104;-59
2022/06/11 05:15:12;;;;;;;9.43;8.27;;;;;;;16.06;100.00;164764.72;5067184;28;20399;-59
2022/06/11 05:17:37;;;;;;;11.48;6.40;;;;;;;16.06;100.00;164764.72;5070608;28;20466;-59
2022/06/11 05:20:05;;;;;;;15.07;8.02;;;;;;;16.05;100.00;164763.31;5068131;28;20028;-59
2022/06/11 05:22:30;;;;;;;11.60;8.87;;;;;;;16.05;100.00;164763.31;5066553;28;20027;-59
2022/06/11 05:24:56;;;;;;;24.70;8.93;;;;;;;16.02;100.00;164755.22;5063718;28;20044;-59
2022/06/11 05:27:24;;;;;;;11.98;7.57;;;;;;;15.96;100.00;164739.00;5063842;28;20025;-59
2022/06/11 05:29:53;;;;;;;8.55;7.57;;;;;;;15.95;100.00;164736.28;5061749;28;20361;-59
2022/06/11 05:32:30;;;;;;;14.25;6.68;;;;;;;16.05;100.00;164763.31;5063686;28;20029;-59
2022/06/11 05:34:57;;;;;;;10.27;6.57;;;;;;;16.13;100.00;164785.00;5062916;28;20032;-59
2022/06/11 05:37:23;;;;;;;13.00;6.72;;;;;;;16.20;100.00;164801.25;5061997;28;20895;-59
2022/06/11 05:39:48;;;;;;;13.75;6.97;;;;;;;16.26;100.00;164817.53;5065956;28;20025;-59
2022/06/11 05:42:14;;;;;;;9.88;5.07;;;;;;;16.26;100.00;164817.53;5061303;28;20040;-59
2022/06/11 05:44:40;;;;;;;14.95;7.20;;;;;;;16.25;100.00;164814.81;5071721;28;20024;-58
2022/06/11 05:47:08;;;;;;;13.82;7.55;;;;;;;16.32;100.00;164833.78;5071367;28;20052;-59
2022/06/11 05:49:38;;;;;;;9.45;5.18;;;;;;;16.30;100.00;164828.34;5073313;28;20412;-59
2022/06/11 05:52:09;;;;;;;11.77;6.43;;;;;;;16.28;100.00;164824.31;5070141;28;20427;-59
2022/06/11 05:54:35;;;;;;;14.95;4.93;;;;;;;16.48;100.00;164875.75;5064384;28;20035;-59
2022/06/11 05:57:04;;;;;;;9.65;5.05;;;;;;;16.42;100.00;164860.84;5071160;28;20059;-59
2022/06/11 05:59:34;;;;;;;11.30;6.15;;;;;;;16.39;100.00;164851.38;5059682;28;20078;-59
2022/06/11 06:02:00;;;;;;;10.65;4.57;;;;;;;16.35;100.00;164841.88;5063447;28;20047;-59
2022/06/11 06:04:26;;;;;;;11.90;4.18;;;;;;;16.29;100.00;164825.63;5072555;28;20016;-59
2022/06/11 06:06:51;;;;;;;11.63;4.72;;;;;;;16.27;100.00;164820.25;5071446;28;20521;-58
2022/06/11 06:09:17;;;;;;;13.55;3.90;;;;;;;16.34;100.00;164839.22;5073085;28;20025;-59
2022/06/11 06:11:42;;;;;;;17.75;5.47;;;;;;;16.48;100.00;164877.13;5066970;28;20060;-58
2022/06/11 06:14:07;;;;;;;12.43;4.68;;;;;;;16.50;100.00;164882.53;5052779;28;20021;-58
2022/06/11 06:16:33;;;;;;;10.98;4.53;;;;;;;16.65;100.00;164921.84;5050662;28;20110;-59
2022/06/11 06:19:00;;;;;;;9.43;3.75;;;;;;;16.73;100.00;164942.13;5052331;28;20051;-59
2022/06/11 06:21:29;;;;;;;18.30;6.00;;;;;;;16.81;100.00;164963.81;5051111;28;20045;-59
2022/06/11 06:23:55;;;;;;;16.08;5.85;;;;;;;17.05;100.00;165026.19;5050865;28;20029;-59
2022/06/11 06:26:21;;;;;;;10.23;3.70;;;;;;;17.28;100.00;165085.81;5050900;28;20064;-59
2022/06/11 06:28:46;;;;;;;12.02;4.00;;;;;;;17.49;100.00;165141.41;5051762;28;20021;-59
2022/06/11 06:31:13;;;;;;;6.53;3.20;;;;;;;17.97;100.00;165266.13;5051126;28;20045;-59
2022/06/11 06:33:39;;;;;;;10.32;3.90;;;;;;;18.26;100.00;165342.03;5050967;28;20136;-59
2022/06/11 06:36:06;;;;;;;12.35;3.97;;;;;;;18.37;100.00;165373.22;5050838;28;20139;-58
2022/06/11 06:38:33;;;;;;;14.23;4.80;;;;;;;18.58;100.00;165427.47;5051800;28;20455;-59
2022/06/11 06:40:58;;;;;;;19.63;7.40;;;;;;;18.74;100.00;165468.16;5050491;28;20040;-59
2022/06/11 06:43:24;;;;;;;13.55;4.40;;;;;;;18.82;100.00;165489.84;5052378;28;20392;-59
2022/06/11 06:45:49;;;;;;;14.77;4.40;;;;;;;18.95;100.00;165525.16;5062325;28;20044;-59
2022/06/11 06:48:15;;;;;;;11.32;3.88;;;;;;;18.96;100.00;165526.56;5071361;28;20028;-64
2022/06/11 06:50:40;;;;;;;11.38;4.10;;;;;;;18.75;100.00;165472.25;5070365;28;20480;-59
2022/06/11 06:53:06;;;;;;;14.65;4.97;;;;;;;18.69;100.00;165457.31;5070239;28;20020;-59
2022/06/11 06:55:32;;;;;;;16.17;3.88;;;;;;;18.67;100.00;165450.56;5069421;28;20040;-59
2022/06/11 06:57:57;;;;;;;15.05;5.68;;;;;;;18.62;100.00;165438.34;5070017;28;20020;-59
2022/06/11 07:00:23;;;;;;;14.80;5.03;;;;;;;18.72;100.00;165464.09;5070040;28;20740;-59
2022/06/11 07:02:49;;;;;;;17.83;6.07;;;;;;;18.90;100.00;165510.22;5069099;28;20033;-59
2022/06/11 07:05:16;;;;;;;20.15;4.57;;;;;;;18.91;100.00;165514.28;5050522;28;20115;-59
2022/06/11 07:07:41;;;;;;;20.10;5.72;;;;;;;19.05;100.00;165549.59;5069412;28;20021;-59
2022/06/11 07:10:09;;;;;;;17.48;4.30;;;;;;;19.14;100.00;165575.34;5070269;28;20028;-58
2022/06/11 07:12:34;;;;;;;16.90;4.18;;;;;;;19.13;100.00;165571.31;5071747;28;20437;-58
2022/06/11 07:14:59;;;;;;;14.50;4.22;;;;;;;19.13;100.00;165571.31;5070017;28;20086;-60
2022/06/11 07:17:28;;;;;;;15.70;4.55;;;;;;;19.34;100.00;165626.94;5072147;28;20069;-57
2022/06/11 07:20:01;;;;;;;18.77;5.53;;;;;;;19.49;100.00;165666.25;5069560;28;20028;-60
2022/06/11 07:22:32;;;;;;;19.52;4.70;;;;;;;19.28;100.00;165612.00;5071671;28;20085;-60
2022/06/11 07:24:59;;;;;;;19.30;7.22;;;;;;;19.33;100.00;165625.56;5069663;28;20144;-59
2022/06/11 07:27:27;;;;;;;12.80;5.18;;;;;;;19.29;100.00;165614.72;5071273;28;20028;-57
2022/06/11 07:30:13;;;;;;;13.52;5.38;;;;;;;19.64;100.00;165705.63;5070022;28;20109;-57
2022/06/11 07:32:40;;;;;;;14.65;6.30;;;;;;;20.03;100.00;165807.44;5071471;28;20024;-58
2022/06/11 07:35:10;;;;;;;20.90;5.40;;;;;;;20.10;100.00;165826.44;5070233;28;20499;-58
2022/06/11 07:37:36;;;;;;;23.70;5.97;;;;;;;20.25;100.00;165867.16;5071842;28;20052;-58
2022/06/11 07:40:03;;;;;;;14.65;5.35;;;;;;;20.22;100.00;165859.00;5068749;28;20471;-57
2022/06/11 07:42:28;;;;;;;16.53;4.17;;;;;;;20.16;100.00;165841.38;5071350;28;20063;-57
2022/06/11 07:44:54;;;;;;;23.08;5.72;;;;;;;20.16;100.00;165841.38;5069575;28;20036;-58
2022/06/11 07:47:53;;;;;;;14.70;4.40;;;;;;;20.07;100.00;165819.66;5071144;28;20496;-58
2022/06/11 07:50:06;;;;;;;17.48;6.18;;;;;;;19.92;100.00;165780.28;5069227;28;20124;-57
2022/06/11 07:52:31;;;;;;;14.70;4.80;;;;;;;19.93;100.00;165781.66;5070887;28;20032;-58
2022/06/11 07:54:57;;;;;;;24.77;6.38;;;;;;;20.10;100.00;165827.84;5069325;28;20363;-58
2022/06/11 07:57:22;;;;;;;19.83;4.90;;;;;;;20.27;100.00;165872.63;5071108;28;20043;-57
2022/06/11 07:59:48;;;;;;;13.35;4.60;;;;;;;20.27;100.00;165872.63;5070657;28;20020;-58
2022/06/11 08:02:13;;;;;;;17.80;6.93;;;;;;;20.40;100.00;165905.16;5069160;28;20048;-58
2022/06/11 08:04:38;;;;;;;9.68;4.80;;;;;;;20.70;100.00;165985.25;5070774;28;20021;-58
2022/06/11 08:07:04;;;;;;;20.38;6.30;;;;;;;21.05;100.00;166076.28;5068764;28;20051;-59
2022/06/11 08:09:29;;;;;;;25.92;5.90;;;;;;;21.03;100.00;166072.22;5070610;28;20029;-58
2022/06/11 08:11:55;;;;;;;17.60;5.32;;;;;;;21.35;100.00;166155.03;5068609;28;20048;-58
2022/06/11 08:14:21;;;;;;;23.05;6.72;;;;;;;21.51;100.00;166197.16;5070736;28;20028;-58
2022/06/11 08:16:46;;;;;;;18.33;4.60;;;;;;;21.97;100.00;166318.09;5068922;28;20048;-58
2022/06/11 08:19:11;;;;;;;19.80;5.75;;;;;;;21.89;100.00;166296.34;5070196;28;20032;-58
2022/06/11 08:21:37;;;;;;;15.10;5.03;;;;;;;21.94;100.00;166311.31;5068902;28;20056;-58
2022/06/11 08:24:02;;;;;;;10.65;4.45;;;;;;;21.99;100.00;166323.53;5070452;28;20078;-58
2022/06/11 08:26:28;;;;;;;18.77;6.45;;;;;;;22.21;100.00;166380.59;5068719;28;20449;-58
2022/06/11 08:28:53;;;;;;;23.35;5.22;;;;;;;22.42;100.00;166437.72;5070255;28;20021;-58
2022/06/11 08:31:19;;;;;;;14.95;4.25;;;;;;;22.46;100.00;166448.56;5069100;28;20041;-58
2022/06/11 08:33:44;;;;;;;17.67;4.43;;;;;;;22.29;100.00;166402.34;5069954;28;20021;-59
2022/06/11 08:36:09;;;;;;;18.02;5.00;;;;;;;21.97;100.00;166319.44;5069051;28;20044;-59
2022/06/11 08:38:35;;;;;;;18.50;4.50;;;;;;;21.80;100.00;166274.63;5070425;28;20020;-58
2022/06/11 08:41:00;;;;;;;19.67;5.47;;;;;;;21.58;100.00;166214.84;5068540;28;20036;-58
2022/06/11 08:43:30;;;;;;;27.52;5.82;;;;;;;21.87;100.00;166292.28;5069985;28;20032;-58
2022/06/11 08:46:00;;;;;;;26.13;7.72;;;;;;;21.44;100.00;166179.50;5068493;28;20044;-58
2022/06/11 08:48:46;;;;;;;11.15;4.43;;;;;;;21.82;100.00;166280.06;5070006;28;20106;-58
2022/06/11 08:51:18;;;;;;;13.85;5.68;;;;;;;21.87;100.00;166293.63;5068616;28;20564;-59
2022/06/11 08:53:44;;;;;;;23.33;5.53;;;;;;;22.03;100.00;166334.38;5070484;28;20111;-58
2022/06/11 08:56:19;;;;;;;25.15;4.88;;;;;;;22.39;100.00;166429.53;5068487;28;20128;-59
2022/06/11 08:59:08;;;;;;;10.13;4.18;;;;;;;22.32;100.00;166411.84;5069674;28;20029;-59
2022/06/11 09:01:46;;;;;;;14.10;4.60;;;;;;;22.31;100.00;166407.75;5068289;28;20071;-58
2022/06/11 09:04:28;;;;;;;12.70;4.88;;;;;;;22.73;100.00;166519.25;5069911;28;20266;-58
2022/06/11 09:07:16;;;;;;;14.45;4.53;;;;;;;22.96;100.00;166579.06;5068310;28;20051;-59
2022/06/11 09:10:05;;;;;;;13.88;4.85;;;;;;;23.07;100.00;166608.94;5069952;28;20113;-59
2022/06/11 09:13:08;;;;;;;16.60;4.53;;;;;;;23.23;100.00;166651.13;5056964;28;20036;-59
2022/06/11 09:15:52;;;;;;;15.40;4.07;;;;;;;23.27;100.00;166662.03;5068446;28;20041;-59
2022/06/11 09:18:35;;;;;;;13.52;4.30;;;;;;;23.42;100.00;166701.41;5064273;28;20025;-58
2022/06/11 09:21:21;;;;;;;12.07;5.43;;;;;;;23.52;100.00;166725.91;5048059;28;20432;-59
2022/06/11 09:24:14;;;;;;;21.73;5.03;;;;;;;23.28;100.00;166663.34;5060382;28;20024;-58
2022/06/11 09:26:46;;;;;;;19.23;5.10;;;;;;;23.23;100.00;166651.13;5068266;28;20056;-59
2022/06/11 09:29:27;;;;;;;14.85;4.57;;;;;;;22.81;100.00;166541.00;5069672;28;20028;-59
2022/06/11 09:32:11;;;;;;;17.48;5.05;;;;;;;22.79;100.00;166534.16;5066197;28;20047;-58
2022/06/11 09:34:49;;;;;;;17.90;5.55;;;;;;;23.63;100.00;166755.84;5065689;28;20021;-58
2022/06/11 09:37:32;;;;;;;18.90;5.15;;;;;;;23.96;100.00;166842.88;5068043;28;20120;-58
2022/06/11 09:40:18;;;;;;;18.83;5.03;;;;;;;23.41;100.00;166697.34;5067897;28;20020;-58
2022/06/11 09:43:02;;;;;;;12.63;4.05;;;;;;;23.10;100.00;166617.13;5069911;28;20032;-58
2022/06/11 09:45:52;;;;;;;19.63;4.78;;;;;;;22.66;100.00;166501.56;5068618;28;20040;-58
2022/06/11 09:48:20;;;;;;;10.27;3.88;;;;;;;22.03;100.00;166334.38;5069644;28;20027;-58
2022/06/11 09:50:50;;;;;;;16.35;4.65;;;;;;;22.32;100.00;166410.47;5068501;28;20060;-58
2022/06/11 09:53:19;;;;;;;12.98;3.22;;;;;;;22.76;100.00;166527.38;5069628;28;20514;-58
2022/06/11 09:56:00;;;;;;;;;;;;;;;22.89;100.00;166560.03;5068818;28;20041;-58
2022/06/11 09:58:29;;;;;;;23.15;6.97;;;;;;;22.55;100.00;166470.31;5070234;28;20326;-58
2022/06/11 10:01:01;;;;;;;20.83;3.97;;;;;;;22.43;100.00;166440.44;5067577;28;20076;-58
2022/06/11 10:03:35;;;;;;;20.33;5.38;;;;;;;22.70;100.00;166511.09;5070190;28;20026;-59
2022/06/11 10:06:03;;;;;;;15.27;4.25;;;;;;;22.73;100.00;166517.88;5071431;28;20048;-58
2022/06/11 10:08:31;;;;;;;;;;;;;;;23.08;100.00;166611.66;5072836;28;20024;-59
2022/06/11 10:10:57;;;;;;;20.75;4.70;;;;;;;23.02;100.00;166595.38;5071066;28;19928;-58
2022/06/11 10:13:38;;;;;;;18.00;4.60;;;;;;;23.22;100.00;166647.06;5072773;28;20032;-58
2022/06/11 10:16:19;;;;;;;20.42;5.45;;;;;;;23.63;100.00;166755.84;5071047;28;20055;-59
2022/06/11 10:18:47;;;;;;;16.05;4.95;;;;;;;23.96;100.00;166842.88;5072997;28;20035;-59
2022/06/11 10:21:16;;;;;;;17.63;6.18;;;;;;;23.81;100.00;166802.03;5071372;28;20074;-58
2022/06/11 10:23:56;;;;;;;14.55;5.22;;;;;;;23.94;100.00;166837.44;5062766;28;20025;-58
2022/06/11 10:26:47;;;;;;;15.73;5.82;;;;;;;24.06;100.00;166870.09;5050879;28;20532;-58
2022/06/11 10:29:33;;;;;;;12.65;4.65;;;;;;;24.24;100.00;166916.31;5053343;28;20040;-63
2022/06/11 10:32:12;;;;;;;16.25;4.35;;;;;;;24.31;100.00;166935.34;5069147;28;20045;-59
2022/06/11 10:34:44;;;;;;;24.80;5.97;;;;;;;24.35;100.00;166946.25;5072905;28;20560;-58
2022/06/11 10:37:18;;;;;;;22.85;5.32;;;;;;;24.40;100.00;166958.50;5070976;28;20036;-58
2022/06/11 10:40:08;;;;;;;17.50;5.07;;;;;;;24.55;100.00;166997.94;5073026;28;20146;-59
2022/06/11 10:42:40;;;;;;;13.18;4.53;;;;;;;24.21;100.00;166908.19;5071617;28;20633;-59
2022/06/11 10:45:12;;;;;;;17.45;5.18;;;;;;;23.71;100.00;166777.59;5070586;28;20484;-60
2022/06/11 10:47:50;;;;;;;16.00;4.53;;;;;;;23.68;100.00;166769.41;5072895;28;20028;-59
2022/06/11 10:50:21;;;;;;;20.08;4.70;;;;;;;24.17;100.00;166897.28;5071140;28;20043;-59
2022/06/11 10:52:54;;;;;;;12.27;3.72;;;;;;;24.39;100.00;166957.13;5071920;28;20028;-59
2022/06/11 10:55:47;;;;;;;12.30;5.32;;;;;;;24.15;100.00;166891.88;5071624;28;20064;-59
2022/06/11 10:58:40;;;;;;;7.80;2.92;;;;;;;23.90;100.00;166826.53;5072666;28;20460;-59
2022/06/11 11:01:14;;;;;;;10.35;4.15;;;;;;;23.97;100.00;166845.63;5070581;28;20028;-59
2022/06/11 11:03:58;;;;;;;20.80;4.40;;;;;;;23.35;100.00;166681.03;5072463;28;20031;-60
2022/06/11 11:06:32;;;;;;;14.93;4.20;;;;;;;23.40;100.00;166696.00;5068135;28;20075;-60
2022/06/11 11:09:04;;;;;;;13.48;5.05;;;;;;;23.58;100.00;166743.59;5067603;28;20039;-60
2022/06/11 11:11:40;;;;;;;14.32;4.18;;;;;;;23.06;100.00;166606.22;5068118;28;20060;-59
2022/06/11 11:14:16;;;;;;;11.23;3.63;;;;;;;22.58;100.00;166478.47;5071801;28;20021;-59
2022/06/11 11:16:47;;;;;;;12.98;4.07;;;;;;;22.64;100.00;166494.78;5069136;28;20037;-59
2022/06/11 11:19:12;;;;;;;10.70;4.18;;;;;;;22.47;100.00;166451.28;5071896;28;20544;-59
2022/06/11 11:22:04;;;;;;;13.80;3.50;;;;;;;23.27;100.00;166660.69;5070538;28;20128;-60
2022/06/11 11:24:37;;;;;;;32.60;13.18;;;;;;;23.82;100.00;166806.16;5071734;28;20355;-59
2022/06/11 11:27:13;;;;;;;15.07;5.80;;;;;;;23.71;100.00;166777.59;5070024;28;20407;-59